Time;durP1;ratioP1;P1;durP2;ratioP2;P2;SDS_P1;SDS_P2;PMS_P1;PMS_P2;Temp;Humidity;BMP_temperature;BMP_pressure;BME280_temperature;BME280_humidity;BME280_pressure;Samples;Min_cycle;Max_cycle;Signal;HPM_P1;HPM_P2
2022/06/07 00:01:09;;;;;;;8.32;6.65;;;;;;;16.92;92.39;99181.03;8503999;27;20047;-73
2022/06/07 00:05:10;;;;;;;12.25;8.60;;;;;;;16.83;92.59;99188.59;8520536;27;20100;-72
2022/06/07 00:09:11;;;;;;;13.70;8.82;;;;;;;16.76;92.76;99174.78;8474421;27;20076;-72
2022/06/07 00:13:12;;;;;;;12.57;9.25;;;;;;;16.63;93.26;99184.13;8521225;27;20134;-73
2022/06/07 00:17:13;;;;;;;14.40;8.65;;;;;;;16.56;93.07;99172.97;8501809;27;20035;-72
2022/06/07 00:21:14;;;;;;;13.18;9.20;;;;;;;16.50;93.38;99166.22;8502363;27;20507;-73
2022/06/07 00:25:16;;;;;;;11.07;7.88;;;;;;;16.43;93.23;99159.41;8514807;27;20062;-72
2022/06/07 00:29:17;;;;;;;13.50;7.90;;;;;;;16.34;93.28;99156.00;8497256;27;20040;-73
2022/06/07 00:33:20;;;;;;;14.00;9.50;;;;;;;16.23;93.45;99152.19;8510598;27;20073;-72
2022/06/07 00:37:21;;;;;;;13.90;8.93;;;;;;;16.19;93.46;99158.66;8511220;27;20104;-72
2022/06/07 00:41:22;;;;;;;12.30;9.02;;;;;;;16.12;93.15;99159.28;8462172;27;20188;-73
2022/06/07 00:45:23;;;;;;;10.95;8.27;;;;;;;16.05;92.99;99159.06;8469388;27;20101;-73
2022/06/07 00:49:25;;;;;;;10.25;8.27;;;;;;;16.01;92.95;99147.25;8463175;27;20467;-72
2022/06/07 00:53:27;;;;;;;12.02;8.18;;;;;;;15.99;92.69;99144.06;8477430;27;20046;-73
2022/06/07 00:57:28;;;;;;;9.65;7.65;;;;;;;15.99;92.67;99144.06;8469511;27;20062;-73
2022/06/07 01:01:30;;;;;;;12.30;7.75;;;;;;;16.01;92.61;99136.38;8476371;27;20039;-72
2022/06/07 01:05:32;;;;;;;10.48;7.50;;;;;;;16.00;92.37;99129.31;8484905;28;20059;-73
2022/06/07 01:13:52;;;;;;;10.63;7.65;;;;;;;16.00;92.29;99129.31;8473510;28;20088;-73
2022/06/07 01:17:53;;;;;;;10.25;7.97;;;;;;;15.97;92.15;99130.00;8486702;27;20047;-73
2022/06/07 01:21:55;;;;;;;11.73;7.28;;;;;;;15.92;92.14;99132.94;8471726;27;20398;-73
2022/06/07 01:26:02;;;;;;;10.48;7.95;;;;;;;15.86;92.43;99123.47;8445580;28;20051;-73
2022/06/07 01:30:04;;;;;;;11.40;8.98;;;;;;;15.88;92.29;99115.72;8477959;27;20043;-73
2022/06/07 01:34:05;;;;;;;12.93;8.20;;;;;;;15.89;92.23;99117.31;8467926;27;20043;-72
2022/06/07 01:38:06;;;;;;;13.60;8.90;;;;;;;15.90;92.00;99124.34;8447875;27;20085;-72
2022/06/07 01:42:08;;;;;;;10.35;8.73;;;;;;;15.87;92.08;99120.38;8479325;27;20567;-73
2022/06/07 01:46:09;;;;;;;12.77;9.90;;;;;;;15.85;92.34;99119.94;8510716;27;20452;-72
2022/06/07 01:50:10;;;;;;;14.20;10.80;;;;;;;15.85;92.54;99110.97;8527335;27;20055;-72
2022/06/07 01:54:13;;;;;;;15.95;9.43;;;;;;;15.82;92.49;99111.66;8509046;27;20477;-72
2022/06/07 01:58:13;;;;;;;13.10;9.75;;;;;;;15.79;92.62;99115.06;8522335;27;20421;-73
2022/06/07 02:02:15;;;;;;;13.07;9.50;;;;;;;15.74;92.91;99110.66;8472790;27;20038;-73
2022/06/07 02:06:16;;;;;;;12.57;9.85;;;;;;;15.70;93.08;99108.97;8520312;27;20053;-73
2022/06/07 02:10:17;;;;;;;12.43;8.98;;;;;;;15.68;92.83;99105.78;8529763;27;20428;-72
2022/06/07 02:14:18;;;;;;;14.27;9.25;;;;;;;15.60;93.00;99100.09;8506043;27;20054;-72
2022/06/07 02:18:19;;;;;;;10.25;8.48;;;;;;;15.56;92.67;99104.66;8501398;27;20050;-72
2022/06/07 02:22:20;;;;;;;10.82;7.78;;;;;;;15.51;93.00;99101.31;8513617;27;20138;-72
2022/06/07 02:26:27;;;;;;;13.05;8.95;;;;;;;15.48;93.09;99102.03;8516093;27;20051;-72
2022/06/07 02:30:28;;;;;;;13.43;9.02;;;;;;;15.43;92.98;99097.59;8493287;27;20053;-72
2022/06/07 02:34:29;;;;;;;15.98;10.30;;;;;;;15.39;92.90;99096.69;8501383;27;20040;-72
2022/06/07 02:38:31;;;;;;;18.25;12.02;;;;;;;15.32;92.99;99099.19;8495287;27;20047;-73
2022/06/07 02:42:32;;;;;;;17.23;9.63;;;;;;;15.27;93.02;99099.41;8469904;27;20091;-73
2022/06/07 02:46:33;;;;;;;10.50;8.43;;;;;;;15.23;92.75;99098.47;8516462;27;20067;-72
2022/06/07 02:50:34;;;;;;;10.80;8.05;;;;;;;15.17;92.57;99103.34;8473561;27;20046;-72
2022/06/07 02:54:35;;;;;;;13.73;10.05;;;;;;;15.12;92.70;99100.84;8516661;27;20133;-73
2022/06/07 02:58:36;;;;;;;16.45;10.73;;;;;;;15.09;92.64;99095.31;8519610;27;20051;-73
2022/06/07 03:02:37;;;;;;;14.23;10.25;;;;;;;15.04;92.70;99109.91;8508608;27;20074;-73
2022/06/07 03:06:38;;;;;;;14.80;10.95;;;;;;;15.02;92.56;99105.94;8521768;27;20054;-73
2022/06/07 03:10:39;;;;;;;17.52;12.40;;;;;;;14.98;92.55;99099.59;8503552;27;20130;-72
2022/06/07 03:14:40;;;;;;;18.55;11.02;;;;;;;14.94;92.56;99088.59;8509103;27;20058;-72
2022/06/07 03:18:41;;;;;;;17.45;12.43;;;;;;;14.90;92.80;99097.78;8523179;27;20035;-72
2022/06/07 03:22:42;;;;;;;15.75;11.88;;;;;;;14.86;92.55;99091.44;8520417;27;20071;-72
2022/06/07 03:26:43;;;;;;;12.65;9.20;;;;;;;14.76;92.61;99093.44;8485340;27;20488;-73
2022/06/07 03:30:45;;;;;;;18.17;10.35;;;;;;;14.67;92.68;99079.16;8511493;27;20153;-73
2022/06/07 03:34:46;;;;;;;14.90;10.90;;;;;;;14.65;92.67;99075.97;8510815;27;20039;-72
2022/06/07 03:38:48;;;;;;;20.38;13.10;;;;;;;14.66;92.71;99085.72;8521605;27;20046;-72
2022/06/07 03:42:48;;;;;;;18.35;12.85;;;;;;;14.65;92.22;99097.69;8515984;27;20050;-73
2022/06/07 03:46:49;;;;;;;19.40;11.30;;;;;;;14.67;92.42;99100.88;8484134;27;20054;-72
2022/06/07 03:50:53;;;;;;;16.90;11.68;;;;;;;14.69;92.05;99104.09;8488201;27;20051;-73
2022/06/07 03:54:54;;;;;;;19.10;12.70;;;;;;;14.76;91.83;99093.44;8509705;27;20046;-73
2022/06/07 03:58:55;;;;;;;24.20;16.02;;;;;;;14.80;92.13;99105.22;8528561;27;20133;-72
2022/06/07 04:02:56;;;;;;;24.75;16.75;;;;;;;14.88;92.27;99089.16;8474562;27;20039;-72
2022/06/07 04:11:20;;;;;;;21.65;15.15;;;;;;;15.06;92.16;99101.44;8524626;27;20065;-71
2022/06/07 04:15:21;;;;;;;22.70;15.70;;;;;;;15.18;93.12;99093.25;8524764;27;20050;-72
2022/06/07 04:19:22;;;;;;;21.80;13.32;;;;;;;15.30;92.69;99093.28;8522620;27;20042;-73
2022/06/07 04:23:23;;;;;;;15.82;12.00;;;;;;;15.45;92.76;99094.53;8490630;27;20054;-73
2022/06/07 04:27:24;;;;;;;18.83;13.88;;;;;;;15.61;94.35;99090.81;8524539;27;20089;-72
2022/06/07 04:31:26;;;;;;;21.70;12.93;;;;;;;15.78;94.79;99089.75;8528782;27;20095;-76
2022/06/07 04:35:28;;;;;;;16.83;11.90;;;;;;;15.97;94.99;99086.41;8527549;27;20111;-72
2022/06/07 04:39:28;;;;;;;13.65;11.70;;;;;;;16.14;94.67;99091.59;8484655;27;20044;-74
2022/06/07 04:43:29;;;;;;;12.80;10.07;;;;;;;16.29;94.62;99088.13;8468994;27;20420;-73
2022/06/07 04:47:30;;;;;;;12.35;9.90;;;;;;;16.45;96.30;99091.69;8462040;27;20129;-72
2022/06/07 04:51:35;;;;;;;14.43;10.32;;;;;;;16.56;95.76;99080.28;8520209;27;20488;-73
2022/06/07 04:55:37;;;;;;;15.43;9.02;;;;;;;16.64;95.57;99082.13;8470498;27;20496;-72
2022/06/07 04:59:38;;;;;;;12.07;8.35;;;;;;;16.69;95.66;99095.50;8516152;27;20050;-72
2022/06/07 05:03:39;;;;;;;9.82;7.80;;;;;;;16.80;95.71;99096.56;8513024;27;20047;-72
2022/06/07 05:07:40;;;;;;;13.27;8.32;;;;;;;16.90;95.15;99101.50;8502271;27;20035;-73
2022/06/07 05:11:42;;;;;;;12.95;8.23;;;;;;;17.05;94.78;99108.91;8526366;27;20062;-72
2022/06/07 05:15:54;;;;;;;11.43;8.45;;;;;;;17.13;93.85;99105.19;8482792;27;20042;-72
2022/06/07 05:19:55;;;;;;;13.18;6.90;;;;;;;17.23;92.93;99104.69;8504197;27;20035;-72
2022/06/07 05:23:56;;;;;;;12.98;7.35;;;;;;;17.30;91.99;99096.66;8505666;27;20107;-73
2022/06/07 05:27:57;;;;;;;16.52;7.18;;;;;;;17.38;91.69;99097.66;8516471;27;20038;-73
2022/06/07 05:32:00;;;;;;;10.68;6.70;;;;;;;17.48;90.95;99099.03;8512922;27;20053;-73
2022/06/07 05:36:00;;;;;;;8.75;6.97;;;;;;;17.61;90.48;99092.34;8457731;27;20039;-73
2022/06/07 05:40:03;;;;;;;11.27;6.68;;;;;;;17.73;90.13;99100.44;8503249;27;20502;-72
2022/06/07 05:44:06;;;;;;;13.55;7.13;;;;;;;17.82;89.60;99098.28;8519138;27;20135;-72
2022/06/07 05:48:07;;;;;;;11.95;6.65;;;;;;;17.96;89.35;99093.16;8472249;27;20494;-72
2022/06/07 05:52:08;;;;;;;10.00;6.57;;;;;;;18.11;88.09;99095.03;8506038;27;20047;-73
2022/06/07 05:56:14;;;;;;;10.48;6.43;;;;;;;18.26;87.92;99100.78;8494315;27;20382;-73
2022/06/07 06:00:17;;;;;;;8.50;6.03;;;;;;;18.43;86.59;99103.09;8523484;27;20052;-72
2022/06/07 06:04:20;;;;;;;8.52;5.53;;;;;;;18.59;85.26;99095.63;8455682;27;20381;-73
2022/06/07 06:12:42;;;;;;;5.97;4.65;;;;;;;19.01;82.99;99092.09;8528241;27;20072;-74
2022/06/07 06:16:43;;;;;;;10.95;4.25;;;;;;;19.16;79.69;99093.91;8506754;27;20054;-72
2022/06/07 06:20:46;;;;;;;5.97;4.30;;;;;;;19.35;78.88;99110.28;8519830;27;20079;-73
2022/06/07 06:24:48;;;;;;;5.60;3.53;;;;;;;19.47;77.02;99104.59;8474577;27;20481;-73
2022/06/07 06:28:49;;;;;;;6.00;4.40;;;;;;;19.72;77.10;99105.00;8526087;27;20047;-73
2022/06/07 06:32:51;;;;;;;9.10;4.45;;;;;;;19.95;76.71;99113.16;8519532;27;20554;-72
2022/06/07 06:36:52;;;;;;;5.88;4.13;;;;;;;20.11;73.68;99111.00;8526388;27;20047;-72
2022/06/07 06:40:53;;;;;;;7.82;3.78;;;;;;;20.08;73.40;99112.56;8510510;27;20115;-72
2022/06/07 06:44:55;;;;;;;8.20;4.38;;;;;;;20.05;74.47;99113.28;8493582;27;20542;-72
2022/06/07 06:48:57;;;;;;;5.28;3.88;;;;;;;20.14;74.83;99115.78;8527033;27;20485;-72
2022/06/07 06:52:58;;;;;;;7.18;4.47;;;;;;;20.27;74.65;99114.34;8510478;27;20077;-72
2022/06/07 06:56:59;;;;;;;5.70;3.53;;;;;;;20.42;74.39;99121.63;8518456;27;20051;-72
2022/06/07 07:01:09;;;;;;;7.60;3.80;;;;;;;20.53;73.35;99117.06;8525776;27;20050;-72
2022/06/07 07:05:15;;;;;;;8.27;3.85;;;;;;;20.55;72.97;99117.50;8513441;27;20070;-72
2022/06/07 07:09:19;;;;;;;5.78;3.90;;;;;;;20.53;71.52;99122.56;8503179;27;20062;-73
2022/06/07 07:13:19;;;;;;;5.47;3.80;;;;;;;20.58;71.99;99119.47;8532989;27;20075;-72
2022/06/07 07:17:20;;;;;;;6.28;4.13;;;;;;;20.60;71.58;99128.13;8517790;27;20500;-72
2022/06/07 07:21:35;;;;;;;5.40;4.07;;;;;;;20.56;72.04;99126.50;8489772;27;20481;-72
2022/06/07 07:25:36;;;;;;;5.53;4.00;;;;;;;20.49;72.84;99124.47;8525918;27;20035;-73
2022/06/07 07:29:38;;;;;;;9.02;4.22;;;;;;;20.42;73.24;99127.13;8459637;27;20078;-72
2022/06/07 07:33:39;;;;;;;8.88;3.70;;;;;;;20.35;73.45;99129.78;8521787;27;20508;-73
2022/06/07 07:37:40;;;;;;;5.90;4.65;;;;;;;20.37;73.21;99134.88;8532129;27;20049;-72
2022/06/07 07:41:45;;;;;;;7.70;3.67;;;;;;;20.40;72.28;99145.91;8517505;27;20554;-72
2022/06/07 07:45:51;;;;;;;4.85;3.60;;;;;;;20.45;72.29;99148.34;8495724;27;20126;-72
2022/06/07 07:49:54;;;;;;;4.05;3.28;;;;;;;20.52;71.41;99144.84;8531405;27;20051;-73
2022/06/07 07:53:59;;;;;;;4.82;3.47;;;;;;;20.56;70.26;99149.25;8527706;27;20375;-72
2022/06/07 07:58:00;;;;;;;6.10;3.85;;;;;;;20.55;69.15;99147.66;8506952;27;20166;-73
2022/06/07 08:02:01;;;;;;;5.10;3.35;;;;;;;20.62;69.56;99150.47;8530991;27;20556;-73
2022/06/07 08:06:07;;;;;;;9.27;3.85;;;;;;;20.71;69.11;99150.19;8463074;27;20041;-72
2022/06/07 08:10:07;;;;;;;7.97;3.90;;;;;;;20.81;68.97;99148.75;8516314;27;20054;-72
2022/06/07 08:14:14;;;;;;;5.65;3.58;;;;;;;21.01;68.94;99147.38;8513825;27;20050;-73
2022/06/07 08:18:14;;;;;;;7.13;4.03;;;;;;;21.20;68.14;99149.97;8505420;27;20126;-72
2022/06/07 08:22:15;;;;;;;9.80;3.53;;;;;;;21.43;67.07;99142.31;8530711;27;20552;-72
2022/06/07 08:26:17;;;;;;;5.80;2.50;;;;;;;21.48;64.07;99139.22;8476759;27;20058;-73
2022/06/07 08:30:18;;;;;;;4.43;3.13;;;;;;;21.61;62.57;99136.19;8512159;27;20053;-72
2022/06/07 08:38:38;;;;;;;5.53;3.78;;;;;;;21.82;64.29;99141.81;8509978;27;20080;-72
2022/06/07 08:42:48;;;;;;;6.30;3.00;;;;;;;21.95;62.56;99145.84;8495576;27;20076;-73
2022/06/07 08:46:51;;;;;;;6.75;3.60;;;;;;;22.00;62.98;99142.75;8451207;27;20074;-72
2022/06/07 08:51:25;;;;;;;5.90;3.47;;;;;;;22.03;61.83;99125.50;8529849;27;20054;-72
2022/06/07 08:55:27;;;;;;;5.07;2.88;;;;;;;22.15;60.10;99116.91;8526570;27;20043;-72
2022/06/07 08:59:29;;;;;;;3.50;2.38;;;;;;;22.42;56.34;99124.91;8492998;27;20496;-72
2022/06/07 09:03:51;;;;;;;4.32;2.70;;;;;;;22.53;56.62;99120.19;8483614;27;20046;-73
2022/06/07 09:07:52;;;;;;;6.47;2.83;;;;;;;22.54;56.47;99127.28;8516951;27;20038;-72
2022/06/07 09:12:10;;;;;;;5.38;2.30;;;;;;;22.61;57.42;99116.31;8529807;27;20050;-72
2022/06/07 09:16:12;;;;;;;6.63;2.70;;;;;;;22.72;56.81;99114.41;8529395;27;20043;-73
2022/06/07 09:20:20;;;;;;;5.05;2.80;;;;;;;22.69;56.19;99117.91;8529309;27;20408;-72
2022/06/07 09:24:31;;;;;;;3.87;2.93;;;;;;;22.83;54.41;99106.97;8514693;27;20058;-72
2022/06/07 09:28:32;;;;;;;5.63;3.25;;;;;;;23.52;54.46;99103.91;8514751;27;20043;-73
2022/06/07 09:32:36;;;;;;;2.90;2.40;;;;;;;23.94;53.36;99098.31;8529367;27;20129;-72
2022/06/07 09:36:38;;;;;;;4.05;2.33;;;;;;;24.08;53.35;99096.69;8500335;27;20045;-72
2022/06/07 09:40:53;;;;;;;2.45;2.20;;;;;;;24.20;52.77;99099.06;8504180;27;20059;-72
2022/06/07 09:45:11;;;;;;;3.38;2.50;;;;;;;24.21;49.50;99089.59;8491226;27;20408;-73
2022/06/07 09:49:26;;;;;;;4.55;2.47;;;;;;;24.10;49.01;99083.28;8510104;27;20501;-72
2022/06/07 09:53:38;;;;;;;3.90;2.40;;;;;;;;;;8530246;27;20062;-74
2022/06/07 09:58:13;;;;;;;4.47;2.28;;;;;;;23.72;51.68;99080.25;8535646;27;20076;-73
2022/06/07 10:02:36;;;;;;;2.63;2.22;;;;;;;23.95;49.95;99077.81;8392627;28;20060;-73
2022/06/07 10:06:42;;;;;;;6.20;2.63;;;;;;;24.42;50.67;99075.72;8393024;28;20053;-72
2022/06/07 10:11:09;;;;;;;3.80;2.97;;;;;;;24.54;48.82;99063.41;8378552;28;20052;-72
2022/06/07 10:15:34;;;;;;;6.78;2.40;;;;;;;24.33;49.67;99059.56;8394990;28;20044;-72
2022/06/07 10:19:50;;;;;;;7.72;2.88;;;;;;;24.32;50.71;99062.75;8389328;28;20443;-72
2022/06/07 10:24:05;;;;;;;9.50;2.25;;;;;;;24.54;51.41;99058.66;8390317;28;20041;-73
2022/06/07 10:28:15;;;;;;;5.88;2.88;;;;;;;24.61;49.72;99058.63;8381059;28;20048;-74
2022/06/07 10:32:19;;;;;;;4.55;2.30;;;;;;;24.71;48.04;99052.25;8352549;28;20391;-73
2022/06/07 10:36:29;;;;;;;7.40;2.28;;;;;;;24.79;47.77;99048.28;8394303;28;20044;-73
2022/06/07 10:40:59;;;;;;;4.53;2.38;;;;;;;24.72;47.96;99053.84;8507071;27;20055;-73
2022/06/07 10:45:12;;;;;;;3.67;2.45;;;;;;;24.64;48.03;99057.06;8481156;27;20100;-72
2022/06/07 10:49:29;;;;;;;3.63;2.95;;;;;;;24.35;50.10;99059.97;8533621;27;20046;-73
2022/06/07 10:53:37;;;;;;;6.25;2.88;;;;;;;24.10;51.11;99055.72;8503898;27;20122;-73
2022/06/07 10:57:59;;;;;;;7.40;2.67;;;;;;;23.87;52.18;99054.19;8514710;27;20130;-73
2022/06/07 11:02:29;;;;;;;5.25;2.58;;;;;;;23.56;51.43;99049.56;8514365;27;20054;-73
2022/06/07 11:11:22;;;;;;;4.95;2.53;;;;;;;23.34;51.56;99059.00;8382841;28;20056;-72
2022/06/07 11:15:52;;;;;;;5.95;2.35;;;;;;;23.53;50.57;99044.81;8366528;28;20182;-72
2022/06/07 11:19:54;;;;;;;4.97;2.30;;;;;;;24.12;48.23;99047.81;8374735;28;20041;-73
2022/06/07 11:23:57;;;;;;;3.75;2.38;;;;;;;24.73;46.98;99044.38;8355706;28;20082;-72
2022/06/07 11:28:06;;;;;;;5.35;2.30;;;;;;;25.28;47.60;99056.59;8389767;28;20044;-73
2022/06/07 11:32:38;;;;;;;3.88;1.92;;;;;;;25.52;39.82;99056.38;8396508;28;20068;-74
2022/06/07 11:36:43;;;;;;;2.50;1.77;;;;;;;25.02;41.98;99055.22;8396200;28;20785;-75
2022/06/07 11:40:45;;;;;;;3.50;2.13;;;;;;;25.12;43.82;99043.31;8376264;27;20079;-73
2022/06/07 11:45:03;;;;;;;6.40;2.38;;;;;;;25.12;44.27;99032.25;8527370;27;20042;-72
2022/06/07 11:49:25;;;;;;;6.95;2.20;;;;;;;25.40;43.97;99037.53;8512808;27;20066;-72
2022/06/07 11:53:31;;;;;;;2.88;1.80;;;;;;;25.80;42.49;99038.75;8530865;27;20039;-72
2022/06/07 11:57:32;;;;;;;3.83;1.90;;;;;;;25.55;40.65;99033.47;8510141;27;20132;-73
2022/06/07 12:01:40;;;;;;;4.07;1.48;;;;;;;25.17;41.88;99040.09;8528162;27;20430;-73
2022/06/07 12:05:54;;;;;;;5.32;1.80;;;;;;;24.77;43.42;99036.84;8528634;27;20042;-72
2022/06/07 12:10:03;;;;;;;2.45;1.73;;;;;;;24.36;44.02;99035.91;8509290;27;20056;-73
2022/06/07 12:14:23;;;;;;;2.97;2.00;;;;;;;24.11;44.73;99035.22;8492535;27;20042;-72
2022/06/07 12:18:26;;;;;;;4.88;2.20;;;;;;;23.94;45.21;99032.13;8510099;27;20045;-72
2022/06/07 12:22:40;;;;;;;4.88;2.65;;;;;;;23.94;46.26;99037.63;8507013;27;20054;-72
2022/06/07 12:26:42;;;;;;;5.32;2.60;;;;;;;23.99;46.89;99034.47;8491139;27;20039;-73
2022/06/07 12:30:43;;;;;;;6.85;3.15;;;;;;;23.93;47.29;99041.56;8529453;27;20053;-73
2022/06/07 12:34:47;;;;;;;5.05;2.67;;;;;;;23.76;48.24;99042.41;8526756;27;20047;-71
2022/06/07 12:38:48;;;;;;;6.97;2.80;;;;;;;23.65;48.56;99055.44;8527874;27;20584;-72
2022/06/07 12:42:50;;;;;;;4.15;2.53;;;;;;;23.39;48.83;99061.34;8522716;27;20039;-72
2022/06/07 12:46:52;;;;;;;4.60;2.50;;;;;;;23.06;49.97;99065.28;8525209;27;20043;-70
2022/06/07 12:50:54;;;;;;;6.63;2.90;;;;;;;22.73;50.70;99069.19;8527439;27;20066;-72
2022/06/07 12:55:01;;;;;;;5.75;3.13;;;;;;;22.46;51.77;99087.19;8528794;27;20072;-72
2022/06/07 12:59:07;;;;;;;5.70;3.05;;;;;;;22.25;52.93;99094.19;8525463;27;20038;-73
2022/06/07 13:03:19;;;;;;;6.72;3.00;;;;;;;22.16;54.88;99090.97;8524448;27;20462;-73
2022/06/07 13:07:30;;;;;;;5.78;3.08;;;;;;;22.03;57.82;99095.25;8526196;27;20047;-73
2022/06/07 13:11:37;;;;;;;4.32;3.00;;;;;;;21.92;59.61;99097.13;8529853;27;20536;-72
2022/06/07 13:15:58;;;;;;;9.20;3.15;;;;;;;21.52;62.50;99105.50;8525126;27;20039;-73
2022/06/07 13:20:01;;;;;;;6.57;3.20;;;;;;;21.31;65.31;99101.38;8526683;27;20043;-73
2022/06/07 13:24:03;;;;;;;5.25;3.63;;;;;;;21.24;68.50;99112.34;8492790;27;20077;-73
2022/06/07 13:28:19;;;;;;;5.63;4.10;;;;;;;21.04;70.75;99124.69;8536100;27;20057;-72
2022/06/07 13:32:25;;;;;;;5.57;4.07;;;;;;;20.75;71.49;99125.53;8515608;27;20058;-75
2022/06/07 13:36:39;;;;;;;7.38;4.18;;;;;;;20.54;72.82;99129.63;8531284;27;20038;-73
2022/06/07 13:40:40;;;;;;;7.88;4.05;;;;;;;20.46;73.64;99127.94;8530695;27;20054;-73
2022/06/07 13:44:44;;;;;;;7.00;3.95;;;;;;;20.18;74.31;99122.09;8536573;27;20035;-74
2022/06/07 13:53:21;;;;;;;4.43;3.72;;;;;;;19.79;76.33;99122.31;8534093;27;20039;-72
2022/06/07 13:57:22;;;;;;;7.53;4.43;;;;;;;19.59;76.04;99120.84;8476871;27;20047;-73
2022/06/07 14:01:27;;;;;;;4.10;3.20;;;;;;;19.43;76.17;99125.66;8534462;27;20111;-73
2022/06/07 14:05:30;;;;;;;6.47;3.03;;;;;;;19.32;76.77;99113.72;8535169;27;20544;-72
2022/06/07 14:09:32;;;;;;;8.52;3.78;;;;;;;19.25;77.39;99113.59;8534876;27;20043;-73
2022/06/07 14:13:33;;;;;;;7.30;3.67;;;;;;;19.40;77.01;99109.97;8486030;27;20050;-72
2022/06/07 14:17:37;;;;;;;8.25;3.45;;;;;;;19.23;77.53;99115.94;8495051;27;20138;-72
2022/06/07 14:21:38;;;;;;;5.38;3.67;;;;;;;19.30;77.30;99105.06;8525614;27;20042;-73
2022/06/07 14:25:40;;;;;;;7.18;4.10;;;;;;;19.31;77.41;99101.19;8492257;27;20042;-73
2022/06/07 14:29:42;;;;;;;8.45;4.55;;;;;;;19.31;77.95;99090.22;8535383;27;20113;-73
2022/06/07 14:33:44;;;;;;;5.25;3.65;;;;;;;19.35;77.97;99088.38;8535544;27;20461;-73
2022/06/07 14:37:45;;;;;;;5.25;3.72;;;;;;;19.38;78.79;99073.94;8524386;27;20058;-72
2022/06/07 14:41:47;;;;;;;6.55;4.13;;;;;;;19.27;78.90;99078.44;8526121;27;20752;-72
2022/06/07 14:45:53;;;;;;;5.82;3.72;;;;;;;19.21;79.25;99058.00;8522107;27;20055;-74
2022/06/07 14:49:55;;;;;;;5.60;3.88;;;;;;;19.24;79.76;99051.81;8475623;27;20446;-73
2022/06/07 14:53:59;;;;;;;5.18;3.70;;;;;;;19.16;80.03;99050.91;8524025;27;20043;-73
2022/06/07 14:58:00;;;;;;;5.38;3.80;;;;;;;19.19;79.88;99049.38;8507398;27;20039;-71
2022/06/07 15:02:04;;;;;;;7.35;4.40;;;;;;;19.31;79.42;99040.94;8447804;27;20053;-72
2022/06/07 15:06:05;;;;;;;6.55;4.30;;;;;;;19.35;79.65;99025.38;8509386;27;20038;-74
2022/06/07 15:10:07;;;;;;;5.85;4.07;;;;;;;19.42;80.37;99030.94;8476404;27;20126;-72
2022/06/07 15:14:09;;;;;;;8.85;4.07;;;;;;;19.43;80.27;99032.53;8488659;27;20533;-72
2022/06/07 15:18:13;;;;;;;7.38;3.88;;;;;;;19.42;80.08;99036.44;8530958;27;20041;-72
2022/06/07 15:22:16;;;;;;;5.43;4.05;;;;;;;19.32;80.30;99031.59;8519120;27;20388;-75
2022/06/07 15:26:23;;;;;;;5.70;4.22;;;;;;;19.31;80.35;99032.75;8520938;27;20047;-74
2022/06/07 15:30:24;;;;;;;6.88;4.47;;;;;;;19.26;81.16;99028.38;8520006;27;20047;-75
2022/06/07 15:34:29;;;;;;;7.00;4.30;;;;;;;19.35;81.23;99019.91;8533181;27;20446;-74
2022/06/07 15:38:30;;;;;;;6.70;3.88;;;;;;;19.41;80.81;99007.47;8484388;27;20059;-73
2022/06/07 15:46:51;;;;;;;6.03;3.67;;;;;;;19.47;80.60;99006.00;8520231;27;20050;-74
2022/06/07 15:50:55;;;;;;;4.85;3.58;;;;;;;19.41;80.65;98997.28;8521102;27;20058;-74
2022/06/07 15:54:59;;;;;;;7.00;3.67;;;;;;;19.26;80.95;98990.03;8517266;27;20046;-74
2022/06/07 15:59:04;;;;;;;6.78;3.75;;;;;;;19.18;81.23;98993.84;8519119;27;20057;-74
2022/06/07 16:03:05;;;;;;;5.22;4.05;;;;;;;19.04;81.74;98992.81;8498180;27;20125;-73
2022/06/07 16:07:06;;;;;;;4.57;4.00;;;;;;;18.92;82.25;98997.34;8522539;27;20478;-74
2022/06/07 16:11:07;;;;;;;6.18;4.05;;;;;;;18.74;82.45;98996.25;8495572;27;20042;-73
2022/06/07 16:15:09;;;;;;;7.05;3.78;;;;;;;18.60;83.08;99000.69;8476666;27;20127;-73
2022/06/07 16:19:11;;;;;;;6.30;4.50;;;;;;;18.49;83.48;99005.94;8528810;27;20083;-73
2022/06/07 16:23:17;;;;;;;9.00;4.18;;;;;;;18.53;83.36;98990.38;8471343;27;20051;-74
2022/06/07 16:36:04;;;;;;;7.70;4.40;;;;;;;18.55;83.47;99004.53;8531557;27;20122;-73
2022/06/07 16:40:06;;;;;;;7.80;4.72;;;;;;;18.58;83.66;99013.94;8483814;27;20126;-73
2022/06/07 16:44:09;;;;;;;7.78;4.50;;;;;;;18.59;84.07;99010.84;8517123;27;20079;-73
2022/06/07 16:48:10;;;;;;;5.60;3.72;;;;;;;18.41;83.99;99017.88;8531263;27;20087;-72
2022/06/07 16:52:13;;;;;;;5.32;4.10;;;;;;;18.44;84.20;99019.91;8497487;27;20141;-73
2022/06/07 16:56:15;;;;;;;5.53;3.85;;;;;;;18.47;84.05;99024.66;8531384;27;20051;-73
2022/06/07 17:00:17;;;;;;;6.88;3.90;;;;;;;18.33;84.53;99016.19;8464107;27;20120;-73
2022/06/07 17:04:20;;;;;;;5.88;4.47;;;;;;;18.38;84.60;99021.34;8515999;27;20698;-73
2022/06/07 17:08:24;;;;;;;5.72;4.60;;;;;;;18.36;85.01;99023.66;8512363;27;20047;-73
2022/06/07 17:12:27;;;;;;;7.43;4.80;;;;;;;18.31;85.38;99037.63;8511131;27;20062;-73
2022/06/07 17:16:30;;;;;;;6.50;4.53;;;;;;;18.35;85.37;99043.94;8494270;27;20050;-72
2022/06/07 17:20:33;;;;;;;6.43;4.45;;;;;;;18.30;85.56;99047.75;8529992;27;20116;-72
2022/06/07 17:24:36;;;;;;;9.23;4.25;;;;;;;18.27;85.33;99047.69;8529790;27;20047;-73
2022/06/07 17:28:40;;;;;;;6.68;4.32;;;;;;;18.18;85.42;99047.13;8463157;27;20134;-72
2022/06/07 17:32:43;;;;;;;6.43;4.63;;;;;;;18.04;86.06;99045.69;8526075;27;20046;-73
2022/06/07 17:36:47;;;;;;;7.25;4.38;;;;;;;17.98;86.20;99041.66;8477967;27;20504;-72
2022/06/07 17:40:48;;;;;;;5.07;4.53;;;;;;;18.00;86.37;99044.81;8528423;27;20489;-72
2022/06/07 17:44:51;;;;;;;5.47;4.10;;;;;;;17.97;86.39;99040.09;8521247;27;20053;-73
2022/06/07 17:48:55;;;;;;;5.60;4.35;;;;;;;17.92;86.47;99037.66;8472836;27;20039;-73
2022/06/07 17:52:58;;;;;;;5.85;4.45;;;;;;;17.85;86.91;99048.41;8518343;27;20039;-73
2022/06/07 17:56:59;;;;;;;6.18;4.90;;;;;;;17.80;87.07;99051.44;8524403;27;20057;-72
2022/06/07 18:01:00;;;;;;;6.85;4.57;;;;;;;17.74;87.24;99052.84;8471812;27;20138;-72
2022/06/07 18:05:04;;;;;;;9.93;5.22;;;;;;;17.74;87.46;99044.66;8521652;27;20106;-73
2022/06/07 18:09:05;;;;;;;8.82;5.57;;;;;;;17.74;87.52;99047.38;8527676;27;20511;-72
2022/06/07 18:13:06;;;;;;;6.20;4.80;;;;;;;17.73;87.95;99051.25;8533201;27;20077;-73
2022/06/07 18:17:07;;;;;;;8.90;4.85;;;;;;;17.67;87.89;99049.97;8515896;27;20045;-72
2022/06/07 18:21:13;;;;;;;10.32;5.25;;;;;;;17.60;87.98;99047.09;8475907;27;20042;-74
2022/06/07 18:25:18;;;;;;;6.25;5.35;;;;;;;17.60;88.16;99055.28;8530663;27;20049;-71
2022/06/07 18:29:21;;;;;;;6.47;4.45;;;;;;;17.58;88.13;99057.53;8526161;27;20066;-72
2022/06/07 18:33:23;;;;;;;6.05;4.78;;;;;;;17.55;88.32;99053.59;8529171;27;20047;-73
2022/06/07 18:37:23;;;;;;;8.32;5.28;;;;;;;17.57;87.93;99050.47;8515172;27;20130;-72
2022/06/07 18:41:26;;;;;;;7.03;5.22;;;;;;;17.52;88.05;99056.22;8531132;27;20051;-72
2022/06/07 18:45:30;;;;;;;6.80;5.13;;;;;;;17.49;88.59;99057.75;8528867;27;20058;-72
2022/06/07 18:49:33;;;;;;;6.05;4.95;;;;;;;17.44;89.24;99057.22;8512781;27;20054;-74
2022/06/07 18:53:36;;;;;;;8.05;5.75;;;;;;;17.35;89.72;99056.59;8532205;27;20141;-73
2022/06/07 18:57:37;;;;;;;6.57;5.68;;;;;;;17.29;90.13;99056.88;8441047;27;20053;-73
2022/06/07 19:01:41;;;;;;;13.32;5.40;;;;;;;17.28;90.24;99057.25;8526354;27;20798;-73
2022/06/07 19:05:43;;;;;;;13.20;5.45;;;;;;;17.26;90.35;99065.78;8530922;27;20080;-73
2022/06/07 19:09:52;;;;;;;14.82;5.93;;;;;;;17.26;90.13;99064.97;8526757;27;20049;-72
2022/06/07 19:13:54;;;;;;;7.97;5.05;;;;;;;17.22;89.96;99059.44;8525200;27;20059;-73
2022/06/07 19:17:55;;;;;;;8.27;5.80;;;;;;;17.20;90.09;99050.81;8526960;27;20047;-73
2022/06/07 19:21:56;;;;;;;12.27;5.88;;;;;;;17.13;90.23;99050.63;8527718;27;20049;-74
2022/06/07 19:26:01;;;;;;;12.73;7.65;;;;;;;17.08;90.55;99053.63;8528166;27;20087;-73
2022/06/07 19:30:04;;;;;;;9.27;6.20;;;;;;;17.05;90.75;99048.09;8526781;27;20046;-74
2022/06/07 19:34:06;;;;;;;8.13;6.05;;;;;;;17.04;90.91;99046.50;8524461;27;20373;-72
2022/06/07 19:38:07;;;;;;;13.15;5.57;;;;;;;17.02;90.94;99049.59;8450002;27;20051;-73
2022/06/07 19:42:09;;;;;;;8.13;5.97;;;;;;;17.01;90.87;99048.00;8456593;28;20142;-73